Nederlandse vliegveldverwachtingen (TAF)

Luchtvaartmeteorologische informatie voor operationeel gebruik en vluchtvoorbereiding is beschikbaar op www.luchtvaartmeteo.nl.

ZCZC
FC281600 EHWO     WOENSDRECHT/WOENSDRECHT   NLD   19 m.
TAF EHWO 281600Z NIL=

ZCZC
FC281600 EHVK     VOLKEL/VOLKEL   NLD   21 m.
TAF EHVK 281600Z NIL=

ZCZC
FC281600 EHLW     LEEUWARDEN/LEEUWARDEN   NLD   1 m.
TAF EHLW 281633Z 2817/2905 24003KT 3500 BR FEW006 BKN010
    OVC020
    TEMPO 2817/2819 2500 SHRA TSRA SCT005 BKN010 SCT015CB
    BECMG 2819/2822 19003KT 4000 SCT010 BKN015
    PROB40 2822/2905 2500 SCT005 BKN008=

ZCZC
FC281600 EHGR     GILZE-RIJEN/GILZE-RIJEN   NLD   14 m.
TAF EHGR 281600Z NIL=

ZCZC
FC281700 EHKD     DE KOOY/DE KOOY   NLD   1 m.
TAF EHKD 281622Z 2817/2905 23011KT 9999 -RA SCT011 BKN018
    OVC040
    BECMG 2819/2822 NSW BKN013 BKN020=

ZCZC
FT281700 EHAM     AMSTERDAM/SCHIPHOL   NLD   -3 m.
TAF EHAM 281655Z 2818/2924 23007KT 9999 BKN012
    BECMG 2818/2821 SCT025
    PROB30 2822/2907 4000 BR BKN008
    PROB30 TEMPO 2910/2918 7000 -SHRA FEW018CB BKN025=

ZCZC
FT281700 EHBK CCA MAASTRICHT/MAASTRICHT-AACHEN   NLD   114 m.
TAF COR EHBK 281728Z 2818/2924 20005KT 9999 SCT035
    TEMPO 2818/2913 5000 SHRA RA SCT015CB
    PROB30 2904/2907 4000 BR BKN010
    BECMG 2909/2912 25010KT
    PROB30 TEMPO 2913/2919 6000 SHRA FEW015CB
    BECMG 2917/2920 20005KT=

ZCZC
FT281700 EHGG     GRONINGEN/EELDE   NLD   5 m.
TAF EHGG 281720Z 2818/2924 21006KT 9999 -RA BKN015
    TEMPO 2818/2820 4000 RA BKN012
    BECMG 2820/2823 6000 NSW BKN012
    PROB40 2823/2906 2500 BR BKN008
    PROB30 2900/2905 0400 FG VV001
    BECMG 2905/2908 9999 BKN015
    TEMPO 2913/2924 5000 RA SHRA FEW012 SCT015CB=

ZCZC
FT281700 EHRD     ROTTERDAM/THE HAGUE AIRPORT   NLD   -5 m.
TAF EHRD 281703Z 2818/2924 23007KT 9999 SCT025
    PROB30 2821/2907 1400 BCFG BKN008
    PROB30 TEMPO 2910/2918 7000 -SHRA FEW018CB BKN025=

ZCZC
FT281700 EHEH     EINDHOVEN/EINDHOVEN   NLD   22 m.
TAF EHEH 281706Z 2818/2924 23007KT 9999 SCT025 SCT100
    BECMG 2819/2822 VRB03KT
    PROB30 2904/2906 29006KT 6000 BKN010
    TEMPO 2906/2916 4500 RA SHRA BKN007 SCT014CB
    BECMG 2916/2919 21003KT NSW SCT020 SCT050=

28/06/2017 20.15 uur LT